»·PEaware :: AAL820 KPHX-KLAX

AAL820 :: KPHX-KLAX

FLIGHT INFORMATION

Flight Status: Arrived
Operator:
American Airlines
More flights by this operator :: More flights under this callsign
Pilot: Alfredo R. (12181)
Aircraft: BOEING 737-800
(B738)
More flights by this aircraft type
Origin: KPHX Phoenix Sky Harbor Intl
United States
Destination: KLAX Los Angeles Intl
United States
More flights between these airports :: More routes between these airports
Route: KEENS2 MESSI ESTWD HLYWD1
File this flight plan on PilotEdge
Remarks:
Altitude:
(Current/Filed)
340ft
Speed:
(Current/Filed)
425kts
Departed: 23-Jul-19 08:23 PM
Arrived: 23-Jul-19 09:24 PM
Distance/Time
Traveled:
321nm/1:00
Distance/Time
To Go:
Arrived

Flight Plot

Page will automatically refresh every two minutes.

Flight plan parsing failed; only flown route is shown


Map Options




Map Legend


Flown Route
Filed Route
Departure Airport
Arrival Airport
Navaid (VOR, NDB)
Fix

Horizontal Profiles

Position Reports

Time Latitude Longitude Heading Altitude Ground
Speed
23-Jul-19 19:48 33.437480 -111.996202 272 1139ft 0kts
23-Jul-19 19:49 33.437480 -111.996202 272 1139ft 0kts
23-Jul-19 19:51 33.437480 -111.996202 272 1139ft 0kts
23-Jul-19 19:52 33.437480 -111.996202 272 1139ft 0kts
23-Jul-19 19:53 33.437480 -111.996202 272 1139ft 0kts
23-Jul-19 19:54 33.437480 -111.996202 272 1139ft 0kts
23-Jul-19 19:55 33.437480 -111.996202 272 1139ft 0kts
23-Jul-19 19:56 33.437480 -111.996202 272 1139ft 0kts
23-Jul-19 19:57 33.437480 -111.996202 272 1139ft 0kts
23-Jul-19 19:58 33.437480 -111.996202 272 1139ft 0kts
23-Jul-19 19:59 33.437480 -111.996202 272 1139ft 0kts
23-Jul-19 20:00 33.437480 -111.996202 272 1139ft 0kts
23-Jul-19 20:01 33.437480 -111.996201 272 1139ft 0kts
23-Jul-19 20:02 33.437480 -111.996201 272 1139ft 0kts
23-Jul-19 20:03 33.437480 -111.996201 272 1139ft 0kts
23-Jul-19 20:04 33.437480 -111.996201 272 1139ft 0kts
23-Jul-19 20:05 33.437476 -111.996098 272 1139ft 2kts
23-Jul-19 20:06 33.437108 -111.995800 356 1139ft 0kts
23-Jul-19 20:07 33.438475 -111.995812 359 1139ft 0kts
23-Jul-19 20:08 33.438475 -111.995812 359 1138ft 0kts
23-Jul-19 20:09 33.438475 -111.995812 359 1138ft 0kts
23-Jul-19 20:10 33.438475 -111.995812 359 1138ft 0kts
23-Jul-19 20:10 33.438475 -111.995812 359 1138ft 0kts
23-Jul-19 20:11 33.438858 -111.995940 321 1138ft 3kts
23-Jul-19 20:13 33.439007 -111.999240 269 1138ft 14kts
23-Jul-19 20:13 33.439002 -112.003654 269 1139ft 16kts
23-Jul-19 20:14 33.438970 -112.009407 270 1138ft 16kts
23-Jul-19 20:16 33.438986 -112.015971 269 1138ft 17kts
23-Jul-19 20:16 33.438997 -112.021092 270 1138ft 19kts
23-Jul-19 20:17 33.439017 -112.027643 269 1138ft 18kts
23-Jul-19 20:18 33.439870 -112.029671 358 1139ft 0kts
23-Jul-19 20:19 33.439934 -112.029673 358 1139ft 2kts
23-Jul-19 20:20 33.440846 -112.028101 90 1138ft 12kts
23-Jul-19 20:21 33.440839 -112.026571 90 1138ft 15kts
23-Jul-19 20:22 33.440551 -111.991054 91 1452ft 173kts
23-Jul-19 20:23 33.441193 -111.932827 88 3484ft 176kts
23-Jul-19 20:24 33.437999 -111.870455 127 4467ft 236kts
23-Jul-19 20:25 33.378904 -111.845730 194 7237ft 241kts
23-Jul-19 20:26 33.345744 -111.910290 279 9535ft 267kts
23-Jul-19 20:27 33.362772 -112.008711 276 10809ft 332kts
23-Jul-19 20:28 33.378473 -112.115980 280 13522ft 348kts
23-Jul-19 20:29 33.394926 -112.225313 280 16422ft 361kts
23-Jul-19 20:30 33.412001 -112.340670 279 19155ft 376kts
23-Jul-19 20:31 33.430302 -112.465605 279 20942ft 387kts
23-Jul-19 20:32 33.448655 -112.592111 277 21670ft 392kts
23-Jul-19 20:33 33.452579 -112.723430 268 24131ft 402kts
23-Jul-19 20:34 33.472533 -112.856645 290 26249ft 421kts
23-Jul-19 20:35 33.518244 -112.987599 291 28177ft 435kts
23-Jul-19 20:36 33.565555 -113.123196 291 29962ft 448kts
23-Jul-19 20:37 33.614141 -113.263085 291 31820ft 455kts
23-Jul-19 20:38 33.662713 -113.403539 291 33864ft 449kts
23-Jul-19 20:39 33.698075 -113.506271 291 33956ft 463kts
23-Jul-19 20:43 33.782889 -113.753882 290 33917ft 463kts
23-Jul-19 20:44 33.831778 -113.897357 290 33919ft 463kts
23-Jul-19 20:45 33.880439 -114.040799 290 33918ft 463kts
23-Jul-19 20:46 33.918395 -114.188395 279 33922ft 460kts
23-Jul-19 20:47 33.943907 -114.339412 279 33920ft 461kts
23-Jul-19 20:48 33.969345 -114.491075 279 33919ft 461kts
23-Jul-19 20:49 33.994558 -114.642448 279 33920ft 460kts
23-Jul-19 20:50 34.019649 -114.794290 278 33922ft 459kts
23-Jul-19 20:51 34.044423 -114.945517 278 33920ft 460kts
23-Jul-19 20:52 34.069166 -115.097429 278 33920ft 461kts
23-Jul-19 20:53 34.093647 -115.248598 278 33918ft 459kts
23-Jul-19 20:54 34.117872 -115.399232 278 33949ft 460kts
23-Jul-19 20:55 34.141723 -115.549228 278 34093ft 454kts
23-Jul-19 20:56 34.161780 -115.699234 267 34101ft 452kts
23-Jul-19 20:57 34.149381 -115.846472 260 34091ft 444kts
23-Jul-19 20:58 34.135155 -115.991000 260 33040ft 435kts
23-Jul-19 20:59 34.121433 -116.129971 260 31299ft 435kts
23-Jul-19 21:00 34.107219 -116.272506 260 29463ft 437kts
23-Jul-19 21:01 34.092571 -116.412050 260 27496ft 425kts
23-Jul-19 21:02 34.078137 -116.545772 260 25568ft 416kts
23-Jul-19 21:03 34.064581 -116.682533 260 23550ft 404kts
23-Jul-19 21:04 34.052319 -116.814004 261 21540ft 388kts
23-Jul-19 21:05 34.039136 -116.940671 259 19816ft 380kts
23-Jul-19 21:06 34.023801 -117.059363 260 18190ft 374kts
23-Jul-19 21:07 34.009488 -117.179225 261 16517ft 363kts
23-Jul-19 21:08 33.995908 -117.292342 260 14888ft 352kts
23-Jul-19 21:09 33.984569 -117.388032 261 13466ft 334kts
23-Jul-19 21:10 33.974682 -117.472088 263 12363ft 326kts
23-Jul-19 21:11 33.983960 -117.557225 281 11177ft 321kts
23-Jul-19 21:12 34.001564 -117.655117 281 9748ft 295kts
23-Jul-19 21:13 34.000992 -117.750666 262 8493ft 273kts
23-Jul-19 21:14 33.989847 -117.860450 261 7253ft 265kts
23-Jul-19 21:15 33.981275 -117.946128 261 6246ft 251kts
23-Jul-19 21:16 33.973299 -118.026898 261 5252ft 235kts
23-Jul-19 21:17 33.966452 -118.095764 261 4325ft 217kts
23-Jul-19 21:18 33.959732 -118.162884 261 3593ft 197kts
23-Jul-19 21:19 33.953431 -118.225386 262 2717ft 164kts
23-Jul-19 21:20 33.947985 -118.278893 262 1837ft 159kts
23-Jul-19 21:21 33.942869 -118.329116 262 1014ft 148kts
23-Jul-19 21:22 33.937880 -118.378175 262 258ft 151kts
23-Jul-19 21:23 33.935592 -118.405116 287 123ft 21kts
23-Jul-19 21:24 33.936031 -118.408295 290 126ft 5kts
23-Jul-19 21:25 33.938612 -118.408928 58 126ft 6kts
23-Jul-19 21:26 33.938981 -118.406020 83 123ft 10kts
23-Jul-19 21:27 33.940437 -118.405948 284 122ft 2kts
23-Jul-19 21:28 33.940472 -118.406164 279 122ft 0kts
23-Jul-19 21:29 33.940472 -118.406164 279 122ft 0kts
23-Jul-19 21:30 33.940472 -118.406164 279 122ft 0kts
23-Jul-19 21:31 33.940472 -118.406164 279 122ft 0kts

Navigation Log

Ident Type
Flight plan parsing failed, navigation log unavailable